sensor_id;sensor_type;location;lat;lon;timestamp;P1;durP1;ratioP1;P2;durP2;ratioP2
14817;SDS011;7500;57.698;11.986;2023-02-28T00:00:40;6.60;;;3.33;;
14817;SDS011;7500;57.698;11.986;2023-02-28T00:03:08;5.20;;;2.43;;
14817;SDS011;7500;57.698;11.986;2023-02-28T00:05:35;5.37;;;2.67;;
14817;SDS011;7500;57.698;11.986;2023-02-28T00:08:02;5.43;;;2.50;;
14817;SDS011;7500;57.698;11.986;2023-02-28T00:10:29;5.37;;;2.40;;
14817;SDS011;7500;57.698;11.986;2023-02-28T00:13:00;3.50;;;2.27;;
14817;SDS011;7500;57.698;11.986;2023-02-28T00:15:29;5.60;;;2.10;;
14817;SDS011;7500;57.698;11.986;2023-02-28T00:17:57;3.97;;;2.30;;
14817;SDS011;7500;57.698;11.986;2023-02-28T00:20:24;5.03;;;2.20;;
14817;SDS011;7500;57.698;11.986;2023-02-28T00:22:52;5.17;;;2.57;;
14817;SDS011;7500;57.698;11.986;2023-02-28T00:25:20;3.17;;;1.77;;
14817;SDS011;7500;57.698;11.986;2023-02-28T00:27:49;3.67;;;2.20;;
14817;SDS011;7500;57.698;11.986;2023-02-28T00:30:18;3.57;;;2.30;;
14817;SDS011;7500;57.698;11.986;2023-02-28T00:32:46;4.33;;;1.90;;
14817;SDS011;7500;57.698;11.986;2023-02-28T00:35:14;7.00;;;2.83;;
14817;SDS011;7500;57.698;11.986;2023-02-28T00:37:41;5.77;;;2.13;;
14817;SDS011;7500;57.698;11.986;2023-02-28T00:40:09;2.80;;;2.10;;
14817;SDS011;7500;57.698;11.986;2023-02-28T00:42:37;3.63;;;2.50;;
14817;SDS011;7500;57.698;11.986;2023-02-28T00:45:05;6.33;;;2.43;;
14817;SDS011;7500;57.698;11.986;2023-02-28T00:47:35;5.10;;;2.03;;
14817;SDS011;7500;57.698;11.986;2023-02-28T00:50:02;9.90;;;2.10;;
14817;SDS011;7500;57.698;11.986;2023-02-28T00:52:30;4.17;;;2.30;;
14817;SDS011;7500;57.698;11.986;2023-02-28T00:54:57;3.83;;;2.10;;
14817;SDS011;7500;57.698;11.986;2023-02-28T00:57:24;7.27;;;2.57;;
14817;SDS011;7500;57.698;11.986;2023-02-28T00:59:51;3.47;;;2.10;;
14817;SDS011;7500;57.698;11.986;2023-02-28T01:02:19;4.03;;;2.43;;
14817;SDS011;7500;57.698;11.986;2023-02-28T01:04:47;3.73;;;2.13;;
14817;SDS011;7500;57.698;11.986;2023-02-28T01:07:15;5.00;;;2.23;;
14817;SDS011;7500;57.698;11.986;2023-02-28T01:09:42;4.37;;;2.23;;
14817;SDS011;7500;57.698;11.986;2023-02-28T01:12:09;6.43;;;2.60;;
14817;SDS011;7500;57.698;11.986;2023-02-28T01:14:36;4.90;;;2.37;;
14817;SDS011;7500;57.698;11.986;2023-02-28T01:17:03;3.67;;;2.17;;
14817;SDS011;7500;57.698;11.986;2023-02-28T01:19:30;5.70;;;2.43;;
14817;SDS011;7500;57.698;11.986;2023-02-28T01:21:58;3.00;;;2.00;;
14817;SDS011;7500;57.698;11.986;2023-02-28T01:24:27;4.80;;;2.00;;
14817;SDS011;7500;57.698;11.986;2023-02-28T01:26:54;6.40;;;2.17;;
14817;SDS011;7500;57.698;11.986;2023-02-28T01:29:20;4.80;;;2.30;;
14817;SDS011;7500;57.698;11.986;2023-02-28T01:31:47;2.37;;;1.90;;
14817;SDS011;7500;57.698;11.986;2023-02-28T01:34:14;4.33;;;2.30;;
14817;SDS011;7500;57.698;11.986;2023-02-28T01:36:41;6.90;;;1.90;;
14817;SDS011;7500;57.698;11.986;2023-02-28T01:39:09;2.77;;;2.00;;
14817;SDS011;7500;57.698;11.986;2023-02-28T01:41:37;5.43;;;2.20;;
14817;SDS011;7500;57.698;11.986;2023-02-28T01:44:06;4.73;;;2.40;;
14817;SDS011;7500;57.698;11.986;2023-02-28T01:46:53;5.30;;;2.37;;
14817;SDS011;7500;57.698;11.986;2023-02-28T01:49:20;3.17;;;2.10;;
14817;SDS011;7500;57.698;11.986;2023-02-28T01:51:48;4.73;;;2.53;;
14817;SDS011;7500;57.698;11.986;2023-02-28T01:54:19;6.40;;;2.10;;
14817;SDS011;7500;57.698;11.986;2023-02-28T01:56:51;7.63;;;2.63;;
14817;SDS011;7500;57.698;11.986;2023-02-28T01:59:23;4.83;;;2.37;;
14817;SDS011;7500;57.698;11.986;2023-02-28T02:01:53;5.13;;;2.20;;
14817;SDS011;7500;57.698;11.986;2023-02-28T02:04:21;5.17;;;2.43;;
14817;SDS011;7500;57.698;11.986;2023-02-28T02:06:52;4.33;;;2.30;;
14817;SDS011;7500;57.698;11.986;2023-02-28T02:09:20;5.80;;;2.60;;
14817;SDS011;7500;57.698;11.986;2023-02-28T02:11:48;4.93;;;2.40;;
14817;SDS011;7500;57.698;11.986;2023-02-28T02:14:20;5.80;;;2.70;;
14817;SDS011;7500;57.698;11.986;2023-02-28T02:17:02;5.37;;;2.90;;
14817;SDS011;7500;57.698;11.986;2023-02-28T02:19:51;9.87;;;2.50;;
14817;SDS011;7500;57.698;11.986;2023-02-28T02:25:36;6.17;;;2.70;;
14817;SDS011;7500;57.698;11.986;2023-02-28T02:28:18;7.57;;;2.40;;
14817;SDS011;7500;57.698;11.986;2023-02-28T02:31:13;7.63;;;2.40;;
14817;SDS011;7500;57.698;11.986;2023-02-28T02:34:10;9.93;;;2.83;;
14817;SDS011;7500;57.698;11.986;2023-02-28T02:36:51;7.83;;;2.03;;
14817;SDS011;7500;57.698;11.986;2023-02-28T02:39:27;6.23;;;2.20;;
14817;SDS011;7500;57.698;11.986;2023-02-28T02:42:00;5.03;;;2.17;;
14817;SDS011;7500;57.698;11.986;2023-02-28T02:44:31;5.37;;;2.03;;
14817;SDS011;7500;57.698;11.986;2023-02-28T02:47:07;3.37;;;2.20;;
14817;SDS011;7500;57.698;11.986;2023-02-28T02:49:38;3.77;;;1.97;;
14817;SDS011;7500;57.698;11.986;2023-02-28T02:52:10;3.53;;;2.63;;
14817;SDS011;7500;57.698;11.986;2023-02-28T02:54:41;3.40;;;2.60;;
14817;SDS011;7500;57.698;11.986;2023-02-28T02:57:13;6.77;;;2.57;;
14817;SDS011;7500;57.698;11.986;2023-02-28T02:59:44;5.27;;;2.80;;
14817;SDS011;7500;57.698;11.986;2023-02-28T03:02:12;7.50;;;2.80;;
14817;SDS011;7500;57.698;11.986;2023-02-28T03:04:43;5.57;;;2.50;;
14817;SDS011;7500;57.698;11.986;2023-02-28T03:07:14;4.63;;;2.50;;
14817;SDS011;7500;57.698;11.986;2023-02-28T03:09:49;6.97;;;2.30;;
14817;SDS011;7500;57.698;11.986;2023-02-28T03:12:17;5.50;;;2.90;;
14817;SDS011;7500;57.698;11.986;2023-02-28T03:14:48;5.80;;;2.70;;
14817;SDS011;7500;57.698;11.986;2023-02-28T03:17:36;5.23;;;2.30;;
14817;SDS011;7500;57.698;11.986;2023-02-28T03:20:17;6.33;;;2.67;;
14817;SDS011;7500;57.698;11.986;2023-02-28T03:23:01;4.50;;;2.60;;
14817;SDS011;7500;57.698;11.986;2023-02-28T03:25:38;6.07;;;2.37;;
14817;SDS011;7500;57.698;11.986;2023-02-28T03:28:14;4.83;;;2.57;;
14817;SDS011;7500;57.698;11.986;2023-02-28T03:30:46;3.43;;;2.30;;
14817;SDS011;7500;57.698;11.986;2023-02-28T03:33:19;4.03;;;2.30;;
14817;SDS011;7500;57.698;11.986;2023-02-28T03:35:52;3.17;;;2.00;;
14817;SDS011;7500;57.698;11.986;2023-02-28T03:38:24;3.97;;;2.00;;
14817;SDS011;7500;57.698;11.986;2023-02-28T03:40:57;2.93;;;2.50;;
14817;SDS011;7500;57.698;11.986;2023-02-28T03:43:29;4.93;;;2.10;;
14817;SDS011;7500;57.698;11.986;2023-02-28T03:46:01;5.00;;;2.30;;
14817;SDS011;7500;57.698;11.986;2023-02-28T03:48:35;5.17;;;1.97;;
14817;SDS011;7500;57.698;11.986;2023-02-28T03:51:08;3.57;;;2.17;;
14817;SDS011;7500;57.698;11.986;2023-02-28T03:53:42;4.33;;;2.30;;
14817;SDS011;7500;57.698;11.986;2023-02-28T03:56:15;4.87;;;2.43;;
14817;SDS011;7500;57.698;11.986;2023-02-28T03:58:47;3.70;;;2.50;;
14817;SDS011;7500;57.698;11.986;2023-02-28T04:01:18;5.17;;;2.50;;
14817;SDS011;7500;57.698;11.986;2023-02-28T04:03:50;5.40;;;2.50;;
14817;SDS011;7500;57.698;11.986;2023-02-28T04:06:19;3.73;;;2.20;;
14817;SDS011;7500;57.698;11.986;2023-02-28T04:08:48;2.83;;;1.90;;
14817;SDS011;7500;57.698;11.986;2023-02-28T04:11:21;5.43;;;2.33;;
14817;SDS011;7500;57.698;11.986;2023-02-28T04:13:49;3.50;;;2.20;;
14817;SDS011;7500;57.698;11.986;2023-02-28T04:16:16;4.63;;;2.50;;
14817;SDS011;7500;57.698;11.986;2023-02-28T04:18:43;5.17;;;2.10;;
14817;SDS011;7500;57.698;11.986;2023-02-28T04:21:10;2.53;;;1.83;;
14817;SDS011;7500;57.698;11.986;2023-02-28T04:23:40;3.23;;;2.00;;
14817;SDS011;7500;57.698;11.986;2023-02-28T04:26:06;3.30;;;2.30;;
14817;SDS011;7500;57.698;11.986;2023-02-28T04:28:34;3.30;;;1.60;;
14817;SDS011;7500;57.698;11.986;2023-02-28T04:31:02;4.47;;;2.20;;
14817;SDS011;7500;57.698;11.986;2023-02-28T04:33:30;4.40;;;2.20;;
14817;SDS011;7500;57.698;11.986;2023-02-28T04:35:59;2.63;;;1.60;;
14817;SDS011;7500;57.698;11.986;2023-02-28T04:38:27;3.73;;;2.10;;
14817;SDS011;7500;57.698;11.986;2023-02-28T04:40:58;3.13;;;1.93;;
14817;SDS011;7500;57.698;11.986;2023-02-28T04:43:25;7.67;;;2.00;;
14817;SDS011;7500;57.698;11.986;2023-02-28T04:45:53;5.47;;;1.97;;
14817;SDS011;7500;57.698;11.986;2023-02-28T04:48:22;5.20;;;2.07;;
14817;SDS011;7500;57.698;11.986;2023-02-28T04:50:49;3.27;;;1.80;;
14817;SDS011;7500;57.698;11.986;2023-02-28T04:53:16;2.93;;;1.90;;
14817;SDS011;7500;57.698;11.986;2023-02-28T04:55:44;2.23;;;1.77;;
14817;SDS011;7500;57.698;11.986;2023-02-28T04:58:12;3.00;;;1.70;;
14817;SDS011;7500;57.698;11.986;2023-02-28T05:00:39;2.97;;;1.90;;
14817;SDS011;7500;57.698;11.986;2023-02-28T05:03:06;2.37;;;1.60;;
14817;SDS011;7500;57.698;11.986;2023-02-28T05:05:33;3.00;;;1.67;;
14817;SDS011;7500;57.698;11.986;2023-02-28T05:08:00;4.50;;;2.10;;
14817;SDS011;7500;57.698;11.986;2023-02-28T05:10:27;3.43;;;1.70;;
14817;SDS011;7500;57.698;11.986;2023-02-28T05:12:54;6.60;;;1.97;;
14817;SDS011;7500;57.698;11.986;2023-02-28T05:15:23;2.80;;;1.67;;
14817;SDS011;7500;57.698;11.986;2023-02-28T05:17:50;6.97;;;2.00;;
14817;SDS011;7500;57.698;11.986;2023-02-28T05:20:17;2.93;;;1.43;;
14817;SDS011;7500;57.698;11.986;2023-02-28T05:22:44;3.13;;;2.07;;
14817;SDS011;7500;57.698;11.986;2023-02-28T05:25:12;3.07;;;1.87;;
14817;SDS011;7500;57.698;11.986;2023-02-28T05:27:42;8.07;;;2.10;;
14817;SDS011;7500;57.698;11.986;2023-02-28T05:30:09;4.50;;;2.03;;
14817;SDS011;7500;57.698;11.986;2023-02-28T05:32:40;3.40;;;2.00;;
14817;SDS011;7500;57.698;11.986;2023-02-28T05:35:08;6.27;;;2.17;;
14817;SDS011;7500;57.698;11.986;2023-02-28T05:37:36;5.77;;;2.23;;
14817;SDS011;7500;57.698;11.986;2023-02-28T05:40:03;3.33;;;2.10;;
14817;SDS011;7500;57.698;11.986;2023-02-28T05:42:35;6.17;;;2.47;;
14817;SDS011;7500;57.698;11.986;2023-02-28T05:45:02;3.27;;;2.03;;
14817;SDS011;7500;57.698;11.986;2023-02-28T05:47:30;6.20;;;2.13;;
14817;SDS011;7500;57.698;11.986;2023-02-28T05:49:59;4.57;;;2.10;;
14817;SDS011;7500;57.698;11.986;2023-02-28T05:52:27;5.63;;;2.33;;
14817;SDS011;7500;57.698;11.986;2023-02-28T05:54:55;5.63;;;2.50;;
14817;SDS011;7500;57.698;11.986;2023-02-28T05:57:22;4.77;;;2.30;;
14817;SDS011;7500;57.698;11.986;2023-02-28T05:59:49;9.30;;;2.53;;
14817;SDS011;7500;57.698;11.986;2023-02-28T06:02:16;3.93;;;2.23;;
14817;SDS011;7500;57.698;11.986;2023-02-28T06:04:44;8.93;;;2.40;;
14817;SDS011;7500;57.698;11.986;2023-02-28T06:07:13;4.60;;;2.43;;
14817;SDS011;7500;57.698;11.986;2023-02-28T06:09:40;5.57;;;2.67;;
14817;SDS011;7500;57.698;11.986;2023-02-28T06:12:07;8.87;;;2.73;;
14817;SDS011;7500;57.698;11.986;2023-02-28T06:14:35;5.13;;;2.40;;
14817;SDS011;7500;57.698;11.986;2023-02-28T06:17:02;6.13;;;2.60;;
14817;SDS011;7500;57.698;11.986;2023-02-28T06:19:30;6.53;;;2.70;;
14817;SDS011;7500;57.698;11.986;2023-02-28T06:21:57;6.57;;;2.63;;
14817;SDS011;7500;57.698;11.986;2023-02-28T06:24:26;6.47;;;3.10;;
14817;SDS011;7500;57.698;11.986;2023-02-28T06:26:55;6.60;;;2.53;;
14817;SDS011;7500;57.698;11.986;2023-02-28T06:29:24;6.20;;;2.53;;
14817;SDS011;7500;57.698;11.986;2023-02-28T06:31:51;5.27;;;2.77;;
14817;SDS011;7500;57.698;11.986;2023-02-28T06:34:18;6.73;;;2.57;;
14817;SDS011;7500;57.698;11.986;2023-02-28T06:36:45;6.43;;;2.67;;
14817;SDS011;7500;57.698;11.986;2023-02-28T06:39:12;9.77;;;5.03;;
14817;SDS011;7500;57.698;11.986;2023-02-28T06:41:40;8.43;;;3.07;;
14817;SDS011;7500;57.698;11.986;2023-02-28T06:44:10;5.23;;;3.00;;
14817;SDS011;7500;57.698;11.986;2023-02-28T06:46:39;8.17;;;2.80;;
14817;SDS011;7500;57.698;11.986;2023-02-28T06:49:06;11.03;;;3.07;;
14817;SDS011;7500;57.698;11.986;2023-02-28T06:51:35;6.90;;;2.70;;
14817;SDS011;7500;57.698;11.986;2023-02-28T06:54:04;6.13;;;2.77;;
14817;SDS011;7500;57.698;11.986;2023-02-28T06:56:35;9.17;;;2.70;;
14817;SDS011;7500;57.698;11.986;2023-02-28T06:59:03;8.10;;;3.20;;
14817;SDS011;7500;57.698;11.986;2023-02-28T07:01:31;9.73;;;3.53;;
14817;SDS011;7500;57.698;11.986;2023-02-28T07:03:58;8.97;;;3.30;;
14817;SDS011;7500;57.698;11.986;2023-02-28T07:06:25;9.17;;;3.20;;
14817;SDS011;7500;57.698;11.986;2023-02-28T07:08:53;6.73;;;3.00;;
14817;SDS011;7500;57.698;11.986;2023-02-28T07:11:20;10.30;;;3.30;;
14817;SDS011;7500;57.698;11.986;2023-02-28T07:13:50;8.10;;;3.63;;
14817;SDS011;7500;57.698;11.986;2023-02-28T07:16:19;8.73;;;3.10;;
14817;SDS011;7500;57.698;11.986;2023-02-28T07:18:46;11.90;;;3.50;;
14817;SDS011;7500;57.698;11.986;2023-02-28T07:21:13;7.17;;;3.00;;
14817;SDS011;7500;57.698;11.986;2023-02-28T07:23:40;11.00;;;3.33;;
14817;SDS011;7500;57.698;11.986;2023-02-28T07:26:10;11.47;;;3.63;;
14817;SDS011;7500;57.698;11.986;2023-02-28T07:28:39;6.13;;;3.30;;
14817;SDS011;7500;57.698;11.986;2023-02-28T07:31:07;13.33;;;4.57;;
14817;SDS011;7500;57.698;11.986;2023-02-28T07:33:37;9.57;;;3.57;;
14817;SDS011;7500;57.698;11.986;2023-02-28T07:36:05;13.13;;;3.73;;
14817;SDS011;7500;57.698;11.986;2023-02-28T07:38:34;7.20;;;3.20;;
14817;SDS011;7500;57.698;11.986;2023-02-28T07:41:02;13.97;;;3.53;;
14817;SDS011;7500;57.698;11.986;2023-02-28T07:43:30;9.13;;;3.17;;
14817;SDS011;7500;57.698;11.986;2023-02-28T07:46:00;6.73;;;2.93;;
14817;SDS011;7500;57.698;11.986;2023-02-28T07:48:28;13.90;;;3.27;;
14817;SDS011;7500;57.698;11.986;2023-02-28T07:50:56;9.00;;;3.77;;
14817;SDS011;7500;57.698;11.986;2023-02-28T07:53:24;9.10;;;3.10;;
14817;SDS011;7500;57.698;11.986;2023-02-28T07:55:54;7.67;;;3.33;;
14817;SDS011;7500;57.698;11.986;2023-02-28T07:58:22;9.90;;;3.80;;
14817;SDS011;7500;57.698;11.986;2023-02-28T08:00:49;6.10;;;3.20;;
14817;SDS011;7500;57.698;11.986;2023-02-28T08:03:16;6.30;;;3.30;;
14817;SDS011;7500;57.698;11.986;2023-02-28T08:05:44;7.80;;;3.77;;
14817;SDS011;7500;57.698;11.986;2023-02-28T08:08:12;9.10;;;4.60;;
14817;SDS011;7500;57.698;11.986;2023-02-28T08:10:39;10.90;;;4.30;;
14817;SDS011;7500;57.698;11.986;2023-02-28T08:13:06;10.40;;;4.37;;
14817;SDS011;7500;57.698;11.986;2023-02-28T08:15:33;11.07;;;4.30;;
14817;SDS011;7500;57.698;11.986;2023-02-28T08:18:01;13.47;;;5.23;;
14817;SDS011;7500;57.698;11.986;2023-02-28T08:20:28;20.43;;;5.47;;
14817;SDS011;7500;57.698;11.986;2023-02-28T08:22:55;13.33;;;4.97;;
14817;SDS011;7500;57.698;11.986;2023-02-28T08:25:24;10.80;;;4.37;;
14817;SDS011;7500;57.698;11.986;2023-02-28T08:27:51;14.00;;;4.53;;
14817;SDS011;7500;57.698;11.986;2023-02-28T08:30:18;10.87;;;4.93;;
14817;SDS011;7500;57.698;11.986;2023-02-28T08:32:45;9.77;;;5.03;;
14817;SDS011;7500;57.698;11.986;2023-02-28T08:35:12;16.00;;;5.70;;
14817;SDS011;7500;57.698;11.986;2023-02-28T08:37:39;12.17;;;5.20;;
14817;SDS011;7500;57.698;11.986;2023-02-28T08:40:07;16.43;;;5.77;;
14817;SDS011;7500;57.698;11.986;2023-02-28T08:42:36;12.47;;;5.20;;
14817;SDS011;7500;57.698;11.986;2023-02-28T08:45:03;12.30;;;5.43;;
14817;SDS011;7500;57.698;11.986;2023-02-28T08:47:30;14.73;;;5.50;;
14817;SDS011;7500;57.698;11.986;2023-02-28T08:49:58;16.83;;;5.50;;
14817;SDS011;7500;57.698;11.986;2023-02-28T08:52:25;13.13;;;5.57;;
14817;SDS011;7500;57.698;11.986;2023-02-28T08:54:51;13.97;;;6.00;;
14817;SDS011;7500;57.698;11.986;2023-02-28T08:57:18;16.00;;;6.03;;
14817;SDS011;7500;57.698;11.986;2023-02-28T08:59:47;14.90;;;6.17;;
14817;SDS011;7500;57.698;11.986;2023-02-28T09:02:14;11.43;;;6.23;;
14817;SDS011;7500;57.698;11.986;2023-02-28T09:04:41;16.13;;;6.47;;
14817;SDS011;7500;57.698;11.986;2023-02-28T09:07:10;14.90;;;6.60;;
14817;SDS011;7500;57.698;11.986;2023-02-28T09:09:37;13.83;;;5.37;;
14817;SDS011;7500;57.698;11.986;2023-02-28T09:12:18;18.47;;;6.93;;
14817;SDS011;7500;57.698;11.986;2023-02-28T09:14:47;13.40;;;6.13;;
14817;SDS011;7500;57.698;11.986;2023-02-28T09:17:13;15.17;;;5.87;;
14817;SDS011;7500;57.698;11.986;2023-02-28T09:19:41;15.80;;;6.30;;
14817;SDS011;7500;57.698;11.986;2023-02-28T09:22:08;17.10;;;6.13;;
14817;SDS011;7500;57.698;11.986;2023-02-28T09:24:36;17.00;;;6.43;;
14817;SDS011;7500;57.698;11.986;2023-02-28T09:27:03;15.17;;;6.97;;
14817;SDS011;7500;57.698;11.986;2023-02-28T09:29:30;17.60;;;7.10;;
14817;SDS011;7500;57.698;11.986;2023-02-28T09:31:59;14.73;;;6.07;;
14817;SDS011;7500;57.698;11.986;2023-02-28T09:34:26;14.57;;;6.83;;
14817;SDS011;7500;57.698;11.986;2023-02-28T09:36:55;18.30;;;7.23;;
14817;SDS011;7500;57.698;11.986;2023-02-28T09:39:23;17.57;;;6.63;;
14817;SDS011;7500;57.698;11.986;2023-02-28T09:41:52;15.37;;;6.47;;
14817;SDS011;7500;57.698;11.986;2023-02-28T09:44:21;14.27;;;6.77;;
14817;SDS011;7500;57.698;11.986;2023-02-28T09:46:55;16.37;;;6.97;;
14817;SDS011;7500;57.698;11.986;2023-02-28T09:49:28;19.03;;;7.00;;
14817;SDS011;7500;57.698;11.986;2023-02-28T09:52:03;13.03;;;6.33;;
14817;SDS011;7500;57.698;11.986;2023-02-28T09:54:34;12.77;;;6.33;;
14817;SDS011;7500;57.698;11.986;2023-02-28T09:57:01;15.53;;;7.40;;
14817;SDS011;7500;57.698;11.986;2023-02-28T09:59:37;17.20;;;6.73;;
14817;SDS011;7500;57.698;11.986;2023-02-28T10:02:16;16.07;;;6.50;;
14817;SDS011;7500;57.698;11.986;2023-02-28T10:04:59;18.27;;;6.97;;
14817;SDS011;7500;57.698;11.986;2023-02-28T10:07:36;18.00;;;6.80;;
14817;SDS011;7500;57.698;11.986;2023-02-28T10:10:18;10.77;;;6.00;;
14817;SDS011;7500;57.698;11.986;2023-02-28T10:12:49;16.50;;;6.10;;
14817;SDS011;7500;57.698;11.986;2023-02-28T10:15:18;13.57;;;6.40;;
14817;SDS011;7500;57.698;11.986;2023-02-28T10:17:51;13.80;;;6.03;;
14817;SDS011;7500;57.698;11.986;2023-02-28T10:20:23;10.27;;;5.67;;
14817;SDS011;7500;57.698;11.986;2023-02-28T10:22:57;10.47;;;6.10;;
14817;SDS011;7500;57.698;11.986;2023-02-28T10:25:32;9.80;;;5.77;;
14817;SDS011;7500;57.698;11.986;2023-02-28T10:28:01;11.33;;;5.80;;
14817;SDS011;7500;57.698;11.986;2023-02-28T10:30:36;15.00;;;6.03;;
14817;SDS011;7500;57.698;11.986;2023-02-28T10:33:08;14.27;;;6.30;;
14817;SDS011;7500;57.698;11.986;2023-02-28T10:35:50;9.93;;;5.60;;
14817;SDS011;7500;57.698;11.986;2023-02-28T10:38:18;14.23;;;7.07;;
14817;SDS011;7500;57.698;11.986;2023-02-28T10:40:47;13.63;;;5.53;;
14817;SDS011;7500;57.698;11.986;2023-02-28T10:43:21;10.47;;;6.00;;
14817;SDS011;7500;57.698;11.986;2023-02-28T10:45:54;13.37;;;5.70;;
14817;SDS011;7500;57.698;11.986;2023-02-28T10:48:29;9.77;;;5.63;;
14817;SDS011;7500;57.698;11.986;2023-02-28T10:50:59;10.87;;;5.30;;
14817;SDS011;7500;57.698;11.986;2023-02-28T10:53:34;10.70;;;5.97;;
14817;SDS011;7500;57.698;11.986;2023-02-28T10:56:04;9.20;;;5.23;;
14817;SDS011;7500;57.698;11.986;2023-02-28T10:58:42;10.33;;;6.30;;
14817;SDS011;7500;57.698;11.986;2023-02-28T11:01:16;10.57;;;6.17;;
14817;SDS011;7500;57.698;11.986;2023-02-28T11:03:45;9.83;;;6.03;;
14817;SDS011;7500;57.698;11.986;2023-02-28T11:06:14;13.53;;;6.50;;
14817;SDS011;7500;57.698;11.986;2023-02-28T11:08:47;10.33;;;6.43;;
14817;SDS011;7500;57.698;11.986;2023-02-28T11:11:16;11.80;;;6.20;;
14817;SDS011;7500;57.698;11.986;2023-02-28T11:13:45;9.37;;;5.60;;
14817;SDS011;7500;57.698;11.986;2023-02-28T11:16:15;9.90;;;5.93;;
14817;SDS011;7500;57.698;11.986;2023-02-28T11:18:46;12.07;;;5.27;;
14817;SDS011;7500;57.698;11.986;2023-02-28T11:21:16;11.13;;;5.80;;
14817;SDS011;7500;57.698;11.986;2023-02-28T11:23:47;7.30;;;5.33;;
14817;SDS011;7500;57.698;11.986;2023-02-28T11:26:15;8.27;;;5.20;;
14817;SDS011;7500;57.698;11.986;2023-02-28T11:29:02;9.20;;;5.80;;
14817;SDS011;7500;57.698;11.986;2023-02-28T11:31:36;7.20;;;4.97;;
14817;SDS011;7500;57.698;11.986;2023-02-28T11:34:10;9.33;;;6.07;;
14817;SDS011;7500;57.698;11.986;2023-02-28T11:36:51;8.83;;;5.60;;
14817;SDS011;7500;57.698;11.986;2023-02-28T11:39:19;9.73;;;5.37;;
14817;SDS011;7500;57.698;11.986;2023-02-28T11:41:52;9.10;;;5.47;;
14817;SDS011;7500;57.698;11.986;2023-02-28T11:44:33;7.30;;;4.77;;
14817;SDS011;7500;57.698;11.986;2023-02-28T11:47:10;7.93;;;5.40;;
14817;SDS011;7500;57.698;11.986;2023-02-28T11:49:47;8.60;;;4.97;;
14817;SDS011;7500;57.698;11.986;2023-02-28T11:52:27;10.53;;;5.20;;
14817;SDS011;7500;57.698;11.986;2023-02-28T11:55:08;9.33;;;5.40;;
14817;SDS011;7500;57.698;11.986;2023-02-28T11:57:49;6.23;;;4.73;;
14817;SDS011;7500;57.698;11.986;2023-02-28T12:00:40;8.13;;;5.50;;
14817;SDS011;7500;57.698;11.986;2023-02-28T12:03:23;9.33;;;5.47;;
14817;SDS011;7500;57.698;11.986;2023-02-28T12:06:03;7.40;;;4.90;;
14817;SDS011;7500;57.698;11.986;2023-02-28T12:08:43;13.27;;;6.13;;
14817;SDS011;7500;57.698;11.986;2023-02-28T12:11:19;8.90;;;6.23;;
14817;SDS011;7500;57.698;11.986;2023-02-28T12:14:03;7.60;;;5.00;;
14817;SDS011;7500;57.698;11.986;2023-02-28T12:16:47;8.63;;;4.60;;
14817;SDS011;7500;57.698;11.986;2023-02-28T12:19:25;14.37;;;5.73;;
14817;SDS011;7500;57.698;11.986;2023-02-28T12:22:11;10.77;;;5.47;;
14817;SDS011;7500;57.698;11.986;2023-02-28T12:24:50;10.77;;;4.87;;
14817;SDS011;7500;57.698;11.986;2023-02-28T12:27:27;12.67;;;5.60;;
14817;SDS011;7500;57.698;11.986;2023-02-28T12:29:58;16.30;;;5.83;;
14817;SDS011;7500;57.698;11.986;2023-02-28T12:32:30;16.23;;;5.47;;
14817;SDS011;7500;57.698;11.986;2023-02-28T12:35:00;11.63;;;5.73;;
14817;SDS011;7500;57.698;11.986;2023-02-28T12:37:33;7.80;;;5.40;;
14817;SDS011;7500;57.698;11.986;2023-02-28T12:40:06;9.33;;;5.90;;
14817;SDS011;7500;57.698;11.986;2023-02-28T12:42:39;12.07;;;6.07;;
14817;SDS011;7500;57.698;11.986;2023-02-28T12:45:12;11.17;;;5.93;;
14817;SDS011;7500;57.698;11.986;2023-02-28T12:47:44;9.57;;;5.83;;
14817;SDS011;7500;57.698;11.986;2023-02-28T12:50:12;9.73;;;5.90;;
14817;SDS011;7500;57.698;11.986;2023-02-28T12:52:43;12.07;;;5.90;;
14817;SDS011;7500;57.698;11.986;2023-02-28T12:55:20;14.57;;;6.77;;
14817;SDS011;7500;57.698;11.986;2023-02-28T12:57:53;13.97;;;6.53;;
14817;SDS011;7500;57.698;11.986;2023-02-28T13:00:32;14.03;;;5.93;;
14817;SDS011;7500;57.698;11.986;2023-02-28T13:03:10;14.00;;;5.50;;
14817;SDS011;7500;57.698;11.986;2023-02-28T13:05:56;7.63;;;4.63;;
14817;SDS011;7500;57.698;11.986;2023-02-28T13:08:53;11.30;;;5.20;;
14817;SDS011;7500;57.698;11.986;2023-02-28T13:11:40;8.83;;;5.20;;
14817;SDS011;7500;57.698;11.986;2023-02-28T13:16:56;13.97;;;5.23;;
14817;SDS011;7500;57.698;11.986;2023-02-28T13:19:28;9.80;;;4.73;;
14817;SDS011;7500;57.698;11.986;2023-02-28T13:21:57;7.77;;;4.90;;
14817;SDS011;7500;57.698;11.986;2023-02-28T13:24:42;10.67;;;4.80;;
14817;SDS011;7500;57.698;11.986;2023-02-28T13:27:22;9.43;;;4.63;;
14817;SDS011;7500;57.698;11.986;2023-02-28T13:29:57;9.90;;;4.87;;
14817;SDS011;7500;57.698;11.986;2023-02-28T13:35:14;9.50;;;4.50;;
14817;SDS011;7500;57.698;11.986;2023-02-28T13:44:06;8.27;;;3.50;;
14817;SDS011;7500;57.698;11.986;2023-02-28T13:46:35;10.27;;;3.60;;
14817;SDS011;7500;57.698;11.986;2023-02-28T13:49:24;15.20;;;3.90;;
14817;SDS011;7500;57.698;11.986;2023-02-28T13:51:53;8.23;;;3.47;;
14817;SDS011;7500;57.698;11.986;2023-02-28T13:54:32;9.17;;;3.00;;
14817;SDS011;7500;57.698;11.986;2023-02-28T13:57:19;5.17;;;3.33;;
14817;SDS011;7500;57.698;11.986;2023-02-28T13:59:59;11.83;;;3.83;;
14817;SDS011;7500;57.698;11.986;2023-02-28T14:02:48;7.93;;;3.10;;
14817;SDS011;7500;57.698;11.986;2023-02-28T14:05:34;9.20;;;3.13;;
14817;SDS011;7500;57.698;11.986;2023-02-28T14:08:04;9.90;;;2.93;;
14817;SDS011;7500;57.698;11.986;2023-02-28T14:10:40;13.53;;;3.30;;
14817;SDS011;7500;57.698;11.986;2023-02-28T14:13:17;8.00;;;2.87;;
14817;SDS011;7500;57.698;11.986;2023-02-28T14:16:10;5.67;;;3.13;;
14817;SDS011;7500;57.698;11.986;2023-02-28T14:18:39;7.00;;;3.20;;
14817;SDS011;7500;57.698;11.986;2023-02-28T14:21:14;11.60;;;3.60;;
14817;SDS011;7500;57.698;11.986;2023-02-28T14:24:01;9.83;;;3.20;;
14817;SDS011;7500;57.698;11.986;2023-02-28T14:29:51;13.43;;;3.53;;
14817;SDS011;7500;57.698;11.986;2023-02-28T14:32:32;5.30;;;3.20;;
14817;SDS011;7500;57.698;11.986;2023-02-28T14:35:03;3.77;;;2.80;;
14817;SDS011;7500;57.698;11.986;2023-02-28T14:37:39;8.97;;;3.63;;
14817;SDS011;7500;57.698;11.986;2023-02-28T14:40:12;8.13;;;2.77;;
14817;SDS011;7500;57.698;11.986;2023-02-28T14:42:46;8.43;;;3.13;;
14817;SDS011;7500;57.698;11.986;2023-02-28T14:45:19;4.53;;;2.73;;
14817;SDS011;7500;57.698;11.986;2023-02-28T14:47:47;11.30;;;3.10;;
14817;SDS011;7500;57.698;11.986;2023-02-28T14:50:20;6.43;;;3.10;;
14817;SDS011;7500;57.698;11.986;2023-02-28T14:52:50;7.83;;;2.87;;
14817;SDS011;7500;57.698;11.986;2023-02-28T14:55:21;11.87;;;3.20;;
14817;SDS011;7500;57.698;11.986;2023-02-28T14:57:53;12.00;;;3.37;;
14817;SDS011;7500;57.698;11.986;2023-02-28T15:00:24;5.50;;;2.90;;
14817;SDS011;7500;57.698;11.986;2023-02-28T15:02:53;8.60;;;2.97;;
14817;SDS011;7500;57.698;11.986;2023-02-28T15:05:28;10.17;;;3.00;;
14817;SDS011;7500;57.698;11.986;2023-02-28T15:08:06;10.90;;;3.40;;
14817;SDS011;7500;57.698;11.986;2023-02-28T15:10:39;11.43;;;3.00;;
14817;SDS011;7500;57.698;11.986;2023-02-28T15:13:11;12.97;;;2.93;;
14817;SDS011;7500;57.698;11.986;2023-02-28T15:15:42;10.47;;;3.33;;
14817;SDS011;7500;57.698;11.986;2023-02-28T15:18:15;7.10;;;3.77;;
14817;SDS011;7500;57.698;11.986;2023-02-28T15:20:50;6.30;;;3.40;;
14817;SDS011;7500;57.698;11.986;2023-02-28T15:23:17;5.70;;;3.23;;
14817;SDS011;7500;57.698;11.986;2023-02-28T15:25:47;4.47;;;2.90;;